Skip Navigation Links
NOAA logo - Click to go to the NOAA homepage
NOAA's National Weather Service
Alaska Aviation Weather Unit
  NWS logo - Click to go to the NWS homepage
Left Navbar Graphic     15 AKDT = 23 GMT

   
NOAA is celebrating 200 years of science, service, and stewardship. Visit the NOAA 200th celebration Web site to learn more.
USA.gov is the U.S. Government's official Web portal to all Federal, state and local government Web resources and services.
Facebook
NWS on Facebook

Important Change Regarding the AAWU Web Presence

 

Over the last several months, the AAWU has been working to navigate its webpages to a nationally supported server. Security, as well as other needs, have necessitated the change.  We have been given an extension for the site changeover while we diligently work at addressing feedback received. As of July 14, 2017, aawu.arh.noaa.gov will be discontinued. The new AAWU web address is weather.gov/aawu. It is now live and will run in-parallel with the old site until it is discontinued on July 14, 2017. Please continue to send any feedback or questions regarding the new webpages to nws.ar.aawu.webauthors@noaa.gov.  Thank you for your patience during this time of transition.
AAWU Home :: Display TAF Add Bookmark
METAR PAWD 191753Z AUTO 34022G32KT 9SM -SN CLR 00/M13 A2918 RMK AO2 PK
     WND 31037/1702 SLP880 P0000 60000 T00001128 10011 20000 51007
     TSNO=

METAR PAWD 191853Z AUTO 33019G34KT 9SM -SN CLR 01/M13 A2918 RMK AO2
 PK WND 33034/1848 SLP880 P0000 T00061128 TSNO=

METAR PAWD 191953Z AUTO 32021G33KT 9SM -SN CLR 01/M13 A2918 RMK AO2 PK
     WND 31038/1934 SLP880 P0000 T00111128 TSNO=

METAR PAWD 192053Z AUTO 32022G34KT 9SM -SN CLR 02/M14 A2918 RMK AO2
 PK WND 31036/2006 SLP883 P0000 60000 T00171139 53003 TSNO=

PAWD 192153Z AUTO 32018G26KT 9SM -SN CLR 02/M14 A2918 RMK AO2 PK
     WND 33033/2129 SLP881 P0000 T00221139 TSNO=

METAR PAWD 192253Z AUTO 32016G30KT 9SM -SN CLR 02/M14 A2918 RMK AO2 PK
     WND 32031/2233 SLP882 P0000 T00221139 TSNO=


NOAA's National Weather Service
Alaska Aviation Weather Unit
6930 Sand Lake Road
Anchorage, AK 99502-1845
Disclaimer
Credits
Glossary
Privacy Policy
About Us
Career Opportunities
Contact AAWU Internet Services Site last modified: April, 17th 2012